sensor_id;sensor_type;location;lat;lon;timestamp;pressure;altitude;pressure_sealevel;temperature
24639;BMP180;1641;51.306;12.384;2024-03-17T00:00:29;100873.00;;;6.80
24639;BMP180;1641;51.306;12.384;2024-03-17T00:02:54;100868.00;;;6.70
24639;BMP180;1641;51.306;12.384;2024-03-17T00:05:20;100821.00;;;6.90
24639;BMP180;1641;51.306;12.384;2024-03-17T00:07:45;100858.00;;;6.80
24639;BMP180;1641;51.306;12.384;2024-03-17T00:10:10;100860.00;;;6.80
24639;BMP180;1641;51.306;12.384;2024-03-17T00:12:36;100868.00;;;7.00
24639;BMP180;1641;51.306;12.384;2024-03-17T00:15:03;100876.00;;;6.90
24639;BMP180;1641;51.306;12.384;2024-03-17T00:17:28;100872.00;;;6.90
24639;BMP180;1641;51.306;12.384;2024-03-17T00:19:54;100871.00;;;7.10
24639;BMP180;1641;51.306;12.384;2024-03-17T00:22:19;100858.00;;;7.00
24639;BMP180;1641;51.306;12.384;2024-03-17T00:24:45;100873.00;;;6.90
24639;BMP180;1641;51.306;12.384;2024-03-17T00:27:10;100873.00;;;6.80
24639;BMP180;1641;51.306;12.384;2024-03-17T00:29:37;100874.00;;;6.70
24639;BMP180;1641;51.306;12.384;2024-03-17T00:32:02;100875.00;;;6.60
24639;BMP180;1641;51.306;12.384;2024-03-17T00:34:28;100880.00;;;6.70
24639;BMP180;1641;51.306;12.384;2024-03-17T00:36:53;100883.00;;;6.60
24639;BMP180;1641;51.306;12.384;2024-03-17T00:39:18;100862.00;;;7.00
24639;BMP180;1641;51.306;12.384;2024-03-17T00:41:44;100874.00;;;6.80
24639;BMP180;1641;51.306;12.384;2024-03-17T00:44:09;100802.00;;;6.70
24639;BMP180;1641;51.306;12.384;2024-03-17T00:46:38;100880.00;;;6.70
24639;BMP180;1641;51.306;12.384;2024-03-17T00:49:04;100880.00;;;6.80
24639;BMP180;1641;51.306;12.384;2024-03-17T00:51:31;100879.00;;;6.60
24639;BMP180;1641;51.306;12.384;2024-03-17T00:53:59;100880.00;;;6.40
24639;BMP180;1641;51.306;12.384;2024-03-17T00:56:25;100889.00;;;6.10
24639;BMP180;1641;51.306;12.384;2024-03-17T00:58:50;100881.00;;;6.00
24639;BMP180;1641;51.306;12.384;2024-03-17T01:01:22;100866.00;;;6.10
24639;BMP180;1641;51.306;12.384;2024-03-17T01:03:48;100889.00;;;6.10
24639;BMP180;1641;51.306;12.384;2024-03-17T01:06:13;100891.00;;;6.30
24639;BMP180;1641;51.306;12.384;2024-03-17T01:08:39;100882.00;;;6.50
24639;BMP180;1641;51.306;12.384;2024-03-17T01:11:04;100861.00;;;6.70
24639;BMP180;1641;51.306;12.384;2024-03-17T01:13:33;100872.00;;;6.30
24639;BMP180;1641;51.306;12.384;2024-03-17T01:15:59;100851.00;;;6.20
24639;BMP180;1641;51.306;12.384;2024-03-17T01:18:24;100873.00;;;6.10
24639;BMP180;1641;51.306;12.384;2024-03-17T01:20:50;100869.00;;;6.00
24639;BMP180;1641;51.306;12.384;2024-03-17T01:23:15;100862.00;;;6.00
24639;BMP180;1641;51.306;12.384;2024-03-17T01:25:40;100862.00;;;5.70
24639;BMP180;1641;51.306;12.384;2024-03-17T01:28:06;100868.00;;;5.70
24639;BMP180;1641;51.306;12.384;2024-03-17T01:30:32;100850.00;;;5.90
24639;BMP180;1641;51.306;12.384;2024-03-17T01:32:58;100847.00;;;5.70
24639;BMP180;1641;51.306;12.384;2024-03-17T01:35:25;100871.00;;;5.80
24639;BMP180;1641;51.306;12.384;2024-03-17T01:37:50;100845.00;;;5.90
24639;BMP180;1641;51.306;12.384;2024-03-17T01:40:16;100872.00;;;5.90
24639;BMP180;1641;51.306;12.384;2024-03-17T01:42:41;100871.00;;;6.10
24639;BMP180;1641;51.306;12.384;2024-03-17T01:45:29;100872.00;;;6.20
24639;BMP180;1641;51.306;12.384;2024-03-17T01:47:55;100868.00;;;6.00
24639;BMP180;1641;51.306;12.384;2024-03-17T01:50:26;100862.00;;;5.80
24639;BMP180;1641;51.306;12.384;2024-03-17T01:52:56;100866.00;;;5.80
24639;BMP180;1641;51.306;12.384;2024-03-17T01:55:25;100863.00;;;5.50
24639;BMP180;1641;51.306;12.384;2024-03-17T01:57:52;100866.00;;;5.30
24639;BMP180;1641;51.306;12.384;2024-03-17T02:00:17;100870.00;;;5.30
24639;BMP180;1641;51.306;12.384;2024-03-17T02:02:43;100833.00;;;5.30
24639;BMP180;1641;51.306;12.384;2024-03-17T02:05:08;100859.00;;;5.40
24639;BMP180;1641;51.306;12.384;2024-03-17T02:07:35;100856.00;;;5.20
24639;BMP180;1641;51.306;12.384;2024-03-17T02:10:01;100865.00;;;5.10
24639;BMP180;1641;51.306;12.384;2024-03-17T02:12:29;100865.00;;;5.40
24639;BMP180;1641;51.306;12.384;2024-03-17T02:14:55;100869.00;;;5.50
24639;BMP180;1641;51.306;12.384;2024-03-17T02:17:21;100870.00;;;5.80
24639;BMP180;1641;51.306;12.384;2024-03-17T02:19:46;100862.00;;;5.70
24639;BMP180;1641;51.306;12.384;2024-03-17T02:22:14;100869.00;;;5.80
24639;BMP180;1641;51.306;12.384;2024-03-17T02:24:44;100783.00;;;5.70
24639;BMP180;1641;51.306;12.384;2024-03-17T02:27:09;100867.00;;;6.00
24639;BMP180;1641;51.306;12.384;2024-03-17T02:29:35;100852.00;;;5.60
24639;BMP180;1641;51.306;12.384;2024-03-17T02:32:03;100854.00;;;5.60
24639;BMP180;1641;51.306;12.384;2024-03-17T02:34:36;100861.00;;;5.70
24639;BMP180;1641;51.306;12.384;2024-03-17T02:37:02;100845.00;;;6.00
24639;BMP180;1641;51.306;12.384;2024-03-17T02:39:30;100854.00;;;5.80
24639;BMP180;1641;51.306;12.384;2024-03-17T02:42:03;100849.00;;;5.90
24639;BMP180;1641;51.306;12.384;2024-03-17T02:44:30;100857.00;;;5.70
24639;BMP180;1641;51.306;12.384;2024-03-17T02:46:56;100855.00;;;5.60
24639;BMP180;1641;51.306;12.384;2024-03-17T02:49:22;100856.00;;;5.40
24639;BMP180;1641;51.306;12.384;2024-03-17T02:51:47;100859.00;;;5.50
24639;BMP180;1641;51.306;12.384;2024-03-17T02:54:13;100847.00;;;5.30
24639;BMP180;1641;51.306;12.384;2024-03-17T02:56:38;100856.00;;;5.40
24639;BMP180;1641;51.306;12.384;2024-03-17T02:59:04;100853.00;;;5.60
24639;BMP180;1641;51.306;12.384;2024-03-17T03:01:29;100850.00;;;5.40
24639;BMP180;1641;51.306;12.384;2024-03-17T03:03:54;100839.00;;;5.30
24639;BMP180;1641;51.306;12.384;2024-03-17T03:06:20;100843.00;;;5.30
24639;BMP180;1641;51.306;12.384;2024-03-17T03:08:48;100844.00;;;5.20
24639;BMP180;1641;51.306;12.384;2024-03-17T03:11:16;100850.00;;;5.30
24639;BMP180;1641;51.306;12.384;2024-03-17T03:13:43;100846.00;;;5.20
24639;BMP180;1641;51.306;12.384;2024-03-17T03:16:13;100852.00;;;5.10
24639;BMP180;1641;51.306;12.384;2024-03-17T03:18:39;100852.00;;;5.10
24639;BMP180;1641;51.306;12.384;2024-03-17T03:21:05;100843.00;;;5.30
24639;BMP180;1641;51.306;12.384;2024-03-17T03:23:30;100856.00;;;5.20
24639;BMP180;1641;51.306;12.384;2024-03-17T03:26:00;100856.00;;;4.90
24639;BMP180;1641;51.306;12.384;2024-03-17T03:28:27;100807.00;;;5.10
24639;BMP180;1641;51.306;12.384;2024-03-17T03:30:53;100843.00;;;5.00
24639;BMP180;1641;51.306;12.384;2024-03-17T03:33:19;100851.00;;;5.10
24639;BMP180;1641;51.306;12.384;2024-03-17T03:35:44;100857.00;;;5.40
24639;BMP180;1641;51.306;12.384;2024-03-17T03:38:11;100836.00;;;5.60
24639;BMP180;1641;51.306;12.384;2024-03-17T03:40:36;100850.00;;;5.40
24639;BMP180;1641;51.306;12.384;2024-03-17T03:43:01;100853.00;;;5.60
24639;BMP180;1641;51.306;12.384;2024-03-17T03:45:27;100854.00;;;5.40
24639;BMP180;1641;51.306;12.384;2024-03-17T03:47:52;100824.00;;;5.10
24639;BMP180;1641;51.306;12.384;2024-03-17T03:50:22;100808.00;;;4.90
24639;BMP180;1641;51.306;12.384;2024-03-17T03:52:48;100866.00;;;4.90
24639;BMP180;1641;51.306;12.384;2024-03-17T03:55:16;100864.00;;;5.00
24639;BMP180;1641;51.306;12.384;2024-03-17T03:57:42;100869.00;;;4.90
24639;BMP180;1641;51.306;12.384;2024-03-17T04:00:08;100858.00;;;5.20
24639;BMP180;1641;51.306;12.384;2024-03-17T04:02:40;100870.00;;;5.20
24639;BMP180;1641;51.306;12.384;2024-03-17T04:05:06;100876.00;;;5.30
24639;BMP180;1641;51.306;12.384;2024-03-17T04:07:32;100866.00;;;5.10
24639;BMP180;1641;51.306;12.384;2024-03-17T04:09:57;100861.00;;;5.00
24639;BMP180;1641;51.306;12.384;2024-03-17T04:12:24;100865.00;;;5.40
24639;BMP180;1641;51.306;12.384;2024-03-17T04:14:50;100862.00;;;5.10
24639;BMP180;1641;51.306;12.384;2024-03-17T04:17:19;100862.00;;;4.70
24639;BMP180;1641;51.306;12.384;2024-03-17T04:19:47;100869.00;;;4.80
24639;BMP180;1641;51.306;12.384;2024-03-17T04:22:12;100867.00;;;4.80
24639;BMP180;1641;51.306;12.384;2024-03-17T04:24:38;100871.00;;;5.00
24639;BMP180;1641;51.306;12.384;2024-03-17T04:27:03;100874.00;;;5.00
24639;BMP180;1641;51.306;12.384;2024-03-17T04:29:29;100803.00;;;5.30
24639;BMP180;1641;51.306;12.384;2024-03-17T04:31:54;100877.00;;;5.00
24639;BMP180;1641;51.306;12.384;2024-03-17T04:34:20;100873.00;;;5.20
24639;BMP180;1641;51.306;12.384;2024-03-17T04:36:46;100870.00;;;5.30
24639;BMP180;1641;51.306;12.384;2024-03-17T04:39:11;100837.00;;;5.40
24639;BMP180;1641;51.306;12.384;2024-03-17T04:41:37;100883.00;;;5.20
24639;BMP180;1641;51.306;12.384;2024-03-17T04:44:03;100886.00;;;4.90
24639;BMP180;1641;51.306;12.384;2024-03-17T04:46:31;100872.00;;;5.30
24639;BMP180;1641;51.306;12.384;2024-03-17T04:48:56;100880.00;;;5.20
24639;BMP180;1641;51.306;12.384;2024-03-17T04:51:22;100876.00;;;4.90
24639;BMP180;1641;51.306;12.384;2024-03-17T04:53:47;100884.00;;;4.60
24639;BMP180;1641;51.306;12.384;2024-03-17T04:56:12;100878.00;;;4.50
24639;BMP180;1641;51.306;12.384;2024-03-17T04:58:41;100875.00;;;4.70
24639;BMP180;1641;51.306;12.384;2024-03-17T05:01:09;100877.00;;;5.00
24639;BMP180;1641;51.306;12.384;2024-03-17T05:03:35;100852.00;;;5.00
24639;BMP180;1641;51.306;12.384;2024-03-17T05:06:02;100883.00;;;4.80
24639;BMP180;1641;51.306;12.384;2024-03-17T05:08:28;100889.00;;;4.60
24639;BMP180;1641;51.306;12.384;2024-03-17T05:11:01;100888.00;;;4.60
24639;BMP180;1641;51.306;12.384;2024-03-17T05:13:30;100891.00;;;4.60
24639;BMP180;1641;51.306;12.384;2024-03-17T05:16:00;100892.00;;;4.60
24639;BMP180;1641;51.306;12.384;2024-03-17T05:18:32;100887.00;;;4.50
24639;BMP180;1641;51.306;12.384;2024-03-17T05:21:01;100892.00;;;4.70
24639;BMP180;1641;51.306;12.384;2024-03-17T05:23:31;100887.00;;;4.50
24639;BMP180;1641;51.306;12.384;2024-03-17T05:25:57;100892.00;;;4.50
24639;BMP180;1641;51.306;12.384;2024-03-17T05:28:27;100898.00;;;4.40
24639;BMP180;1641;51.306;12.384;2024-03-17T05:30:53;100899.00;;;4.50
24639;BMP180;1641;51.306;12.384;2024-03-17T05:33:19;100889.00;;;4.50
24639;BMP180;1641;51.306;12.384;2024-03-17T05:35:54;100912.00;;;4.60
24639;BMP180;1641;51.306;12.384;2024-03-17T05:38:21;100907.00;;;4.50
24639;BMP180;1641;51.306;12.384;2024-03-17T05:40:54;100919.00;;;4.70
24639;BMP180;1641;51.306;12.384;2024-03-17T05:43:20;100914.00;;;4.60
24639;BMP180;1641;51.306;12.384;2024-03-17T05:45:45;100922.00;;;4.60
24639;BMP180;1641;51.306;12.384;2024-03-17T05:48:13;100920.00;;;4.90
24639;BMP180;1641;51.306;12.384;2024-03-17T05:50:39;100925.00;;;4.80
24639;BMP180;1641;51.306;12.384;2024-03-17T05:53:04;100928.00;;;4.70
24639;BMP180;1641;51.306;12.384;2024-03-17T05:55:30;100931.00;;;4.60
24639;BMP180;1641;51.306;12.384;2024-03-17T05:57:55;100929.00;;;4.60
24639;BMP180;1641;51.306;12.384;2024-03-17T06:00:20;100940.00;;;4.70
24639;BMP180;1641;51.306;12.384;2024-03-17T06:02:46;100944.00;;;5.10
24639;BMP180;1641;51.306;12.384;2024-03-17T06:05:11;100939.00;;;5.10
24639;BMP180;1641;51.306;12.384;2024-03-17T06:07:39;100938.00;;;5.10
24639;BMP180;1641;51.306;12.384;2024-03-17T06:10:07;100922.00;;;5.00
24639;BMP180;1641;51.306;12.384;2024-03-17T06:12:33;100916.00;;;4.90
24639;BMP180;1641;51.306;12.384;2024-03-17T06:15:02;100915.00;;;5.00
24639;BMP180;1641;51.306;12.384;2024-03-17T06:17:28;100905.00;;;5.00
24639;BMP180;1641;51.306;12.384;2024-03-17T06:19:54;100942.00;;;5.40
24639;BMP180;1641;51.306;12.384;2024-03-17T06:22:23;100938.00;;;6.10
24639;BMP180;1641;51.306;12.384;2024-03-17T06:24:49;100941.00;;;6.80
24639;BMP180;1641;51.306;12.384;2024-03-17T06:27:15;100939.00;;;8.10
24639;BMP180;1641;51.306;12.384;2024-03-17T06:29:41;100947.00;;;8.40
24639;BMP180;1641;51.306;12.384;2024-03-17T06:32:07;100869.00;;;9.10
24639;BMP180;1641;51.306;12.384;2024-03-17T06:34:32;100934.00;;;8.80
24639;BMP180;1641;51.306;12.384;2024-03-17T06:36:58;100950.00;;;8.90
24639;BMP180;1641;51.306;12.384;2024-03-17T06:39:25;100956.00;;;9.10
24639;BMP180;1641;51.306;12.384;2024-03-17T06:41:50;100949.00;;;9.30
24639;BMP180;1641;51.306;12.384;2024-03-17T06:44:15;100934.00;;;10.20
24639;BMP180;1641;51.306;12.384;2024-03-17T06:46:40;100954.00;;;10.00
24639;BMP180;1641;51.306;12.384;2024-03-17T06:49:06;100964.00;;;11.30
24639;BMP180;1641;51.306;12.384;2024-03-17T06:51:32;100976.00;;;12.20
24639;BMP180;1641;51.306;12.384;2024-03-17T06:53:57;100970.00;;;12.80
24639;BMP180;1641;51.306;12.384;2024-03-17T06:56:24;100980.00;;;10.50
24639;BMP180;1641;51.306;12.384;2024-03-17T06:58:49;100971.00;;;9.90
24639;BMP180;1641;51.306;12.384;2024-03-17T07:01:18;100973.00;;;9.70
24639;BMP180;1641;51.306;12.384;2024-03-17T07:03:44;100957.00;;;10.00
24639;BMP180;1641;51.306;12.384;2024-03-17T07:06:09;100982.00;;;10.30
24639;BMP180;1641;51.306;12.384;2024-03-17T07:08:35;100968.00;;;11.50
24639;BMP180;1641;51.306;12.384;2024-03-17T07:11:04;100987.00;;;11.50
24639;BMP180;1641;51.306;12.384;2024-03-17T07:13:32;100957.00;;;11.00
24639;BMP180;1641;51.306;12.384;2024-03-17T07:15:59;100956.00;;;11.10
24639;BMP180;1641;51.306;12.384;2024-03-17T07:18:25;100986.00;;;10.60
24639;BMP180;1641;51.306;12.384;2024-03-17T07:20:51;100979.00;;;9.90
24639;BMP180;1641;51.306;12.384;2024-03-17T07:23:16;100977.00;;;9.90
24639;BMP180;1641;51.306;12.384;2024-03-17T07:25:42;100984.00;;;8.20
24639;BMP180;1641;51.306;12.384;2024-03-17T07:28:08;100981.00;;;8.80
24639;BMP180;1641;51.306;12.384;2024-03-17T07:30:34;100980.00;;;8.90
24639;BMP180;1641;51.306;12.384;2024-03-17T07:33:00;100979.00;;;8.50
24639;BMP180;1641;51.306;12.384;2024-03-17T07:35:25;100975.00;;;8.20
24639;BMP180;1641;51.306;12.384;2024-03-17T07:37:50;100981.00;;;9.00
24639;BMP180;1641;51.306;12.384;2024-03-17T07:40:15;100995.00;;;8.90
24639;BMP180;1641;51.306;12.384;2024-03-17T07:42:41;100995.00;;;8.90
24639;BMP180;1641;51.306;12.384;2024-03-17T07:45:07;100982.00;;;9.30
24639;BMP180;1641;51.306;12.384;2024-03-17T07:47:33;100990.00;;;9.30
24639;BMP180;1641;51.306;12.384;2024-03-17T07:50:03;100984.00;;;9.00
24639;BMP180;1641;51.306;12.384;2024-03-17T07:52:30;100989.00;;;10.50
24639;BMP180;1641;51.306;12.384;2024-03-17T07:54:55;100975.00;;;10.30
24639;BMP180;1641;51.306;12.384;2024-03-17T07:57:21;100984.00;;;9.60
24639;BMP180;1641;51.306;12.384;2024-03-17T07:59:49;100988.00;;;11.00
24639;BMP180;1641;51.306;12.384;2024-03-17T08:02:19;100990.00;;;12.10
24639;BMP180;1641;51.306;12.384;2024-03-17T08:04:44;100977.00;;;11.60
24639;BMP180;1641;51.306;12.384;2024-03-17T08:07:10;100969.00;;;11.80
24639;BMP180;1641;51.306;12.384;2024-03-17T08:09:36;100972.00;;;11.60
24639;BMP180;1641;51.306;12.384;2024-03-17T08:12:01;100977.00;;;11.10
24639;BMP180;1641;51.306;12.384;2024-03-17T08:14:30;100973.00;;;11.40
24639;BMP180;1641;51.306;12.384;2024-03-17T08:16:56;100965.00;;;11.40
24639;BMP180;1641;51.306;12.384;2024-03-17T08:19:21;100982.00;;;10.80
24639;BMP180;1641;51.306;12.384;2024-03-17T08:21:47;100976.00;;;10.50
24639;BMP180;1641;51.306;12.384;2024-03-17T08:24:12;100935.00;;;10.80
24639;BMP180;1641;51.306;12.384;2024-03-17T08:26:38;100918.00;;;11.30
24639;BMP180;1641;51.306;12.384;2024-03-17T08:29:05;100924.00;;;12.10
24639;BMP180;1641;51.306;12.384;2024-03-17T08:31:30;100974.00;;;11.20
24639;BMP180;1641;51.306;12.384;2024-03-17T08:33:56;100967.00;;;11.70
24639;BMP180;1641;51.306;12.384;2024-03-17T08:36:21;100907.00;;;12.00
24639;BMP180;1641;51.306;12.384;2024-03-17T08:38:47;100965.00;;;12.60
24639;BMP180;1641;51.306;12.384;2024-03-17T08:41:13;100950.00;;;11.20
24639;BMP180;1641;51.306;12.384;2024-03-17T08:43:38;100944.00;;;11.50
24639;BMP180;1641;51.306;12.384;2024-03-17T08:46:07;100949.00;;;11.20
24639;BMP180;1641;51.306;12.384;2024-03-17T08:48:34;100954.00;;;10.70
24639;BMP180;1641;51.306;12.384;2024-03-17T08:51:01;100950.00;;;12.80
24639;BMP180;1641;51.306;12.384;2024-03-17T08:53:26;100939.00;;;12.80
24639;BMP180;1641;51.306;12.384;2024-03-17T08:55:53;100915.00;;;13.10
24639;BMP180;1641;51.306;12.384;2024-03-17T08:58:18;100921.00;;;14.30
24639;BMP180;1641;51.306;12.384;2024-03-17T09:00:44;100951.00;;;13.80
24639;BMP180;1641;51.306;12.384;2024-03-17T09:03:10;100939.00;;;13.80
24639;BMP180;1641;51.306;12.384;2024-03-17T09:05:37;100934.00;;;14.90
24639;BMP180;1641;51.306;12.384;2024-03-17T09:08:03;100937.00;;;12.80
24639;BMP180;1641;51.306;12.384;2024-03-17T09:10:28;100944.00;;;13.70
24639;BMP180;1641;51.306;12.384;2024-03-17T09:12:54;100923.00;;;14.20
24639;BMP180;1641;51.306;12.384;2024-03-17T09:15:19;100921.00;;;15.20
24639;BMP180;1641;51.306;12.384;2024-03-17T09:17:45;100923.00;;;15.10
24639;BMP180;1641;51.306;12.384;2024-03-17T09:20:12;100926.00;;;15.70
24639;BMP180;1641;51.306;12.384;2024-03-17T09:22:41;100914.00;;;17.00
24639;BMP180;1641;51.306;12.384;2024-03-17T09:25:07;100938.00;;;15.20
24639;BMP180;1641;51.306;12.384;2024-03-17T09:27:33;100934.00;;;13.10
24639;BMP180;1641;51.306;12.384;2024-03-17T09:29:59;100939.00;;;13.60
24639;BMP180;1641;51.306;12.384;2024-03-17T09:32:24;100944.00;;;13.60
24639;BMP180;1641;51.306;12.384;2024-03-17T09:34:50;100938.00;;;13.30
24639;BMP180;1641;51.306;12.384;2024-03-17T09:37:15;100938.00;;;14.80
24639;BMP180;1641;51.306;12.384;2024-03-17T09:39:47;100936.00;;;15.20
24639;BMP180;1641;51.306;12.384;2024-03-17T09:42:19;100933.00;;;15.40
24639;BMP180;1641;51.306;12.384;2024-03-17T09:44:48;100929.00;;;13.80
24639;BMP180;1641;51.306;12.384;2024-03-17T09:47:19;100915.00;;;15.00
24639;BMP180;1641;51.306;12.384;2024-03-17T09:49:48;100891.00;;;14.40
24639;BMP180;1641;51.306;12.384;2024-03-17T09:52:25;100938.00;;;14.30
24639;BMP180;1641;51.306;12.384;2024-03-17T09:54:58;100914.00;;;14.50
24639;BMP180;1641;51.306;12.384;2024-03-17T09:57:24;100895.00;;;13.80
24639;BMP180;1641;51.306;12.384;2024-03-17T09:59:53;100931.00;;;13.50
24639;BMP180;1641;51.306;12.384;2024-03-17T10:02:22;100925.00;;;13.00
24639;BMP180;1641;51.306;12.384;2024-03-17T10:04:48;100901.00;;;12.70
24639;BMP180;1641;51.306;12.384;2024-03-17T10:07:13;100930.00;;;11.90
24639;BMP180;1641;51.306;12.384;2024-03-17T10:09:42;100930.00;;;12.00
24639;BMP180;1641;51.306;12.384;2024-03-17T10:12:29;100925.00;;;12.10
24639;BMP180;1641;51.306;12.384;2024-03-17T10:15:01;100916.00;;;10.60
24639;BMP180;1641;51.306;12.384;2024-03-17T10:17:30;100897.00;;;10.40
24639;BMP180;1641;51.306;12.384;2024-03-17T10:20:17;100933.00;;;10.60
24639;BMP180;1641;51.306;12.384;2024-03-17T10:23:05;100931.00;;;10.60
24639;BMP180;1641;51.306;12.384;2024-03-17T10:25:33;100935.00;;;10.70
24639;BMP180;1641;51.306;12.384;2024-03-17T10:27:59;100928.00;;;11.10
24639;BMP180;1641;51.306;12.384;2024-03-17T10:30:26;100907.00;;;10.80
24639;BMP180;1641;51.306;12.384;2024-03-17T10:32:57;100930.00;;;10.30
24639;BMP180;1641;51.306;12.384;2024-03-17T10:35:32;100935.00;;;11.00
24639;BMP180;1641;51.306;12.384;2024-03-17T10:38:02;100929.00;;;11.40
24639;BMP180;1641;51.306;12.384;2024-03-17T10:40:30;100940.00;;;10.90
24639;BMP180;1641;51.306;12.384;2024-03-17T10:42:57;100938.00;;;10.90
24639;BMP180;1641;51.306;12.384;2024-03-17T10:45:25;100938.00;;;10.80
24639;BMP180;1641;51.306;12.384;2024-03-17T10:47:51;100931.00;;;11.20
24639;BMP180;1641;51.306;12.384;2024-03-17T10:50:19;100921.00;;;11.10
24639;BMP180;1641;51.306;12.384;2024-03-17T10:52:46;100922.00;;;11.20
24639;BMP180;1641;51.306;12.384;2024-03-17T10:55:20;100925.00;;;10.70
24639;BMP180;1641;51.306;12.384;2024-03-17T10:57:49;100901.00;;;11.20
24639;BMP180;1641;51.306;12.384;2024-03-17T11:00:16;100926.00;;;11.40
24639;BMP180;1641;51.306;12.384;2024-03-17T11:02:49;100920.00;;;11.10
24639;BMP180;1641;51.306;12.384;2024-03-17T11:05:23;100928.00;;;11.40
24639;BMP180;1641;51.306;12.384;2024-03-17T11:07:50;100917.00;;;11.20
24639;BMP180;1641;51.306;12.384;2024-03-17T11:10:23;100905.00;;;10.50
24639;BMP180;1641;51.306;12.384;2024-03-17T11:13:01;100890.00;;;10.60
24639;BMP180;1641;51.306;12.384;2024-03-17T11:20:33;100906.00;;;11.10
24639;BMP180;1641;51.306;12.384;2024-03-17T11:22:59;100890.00;;;11.10
24639;BMP180;1641;51.306;12.384;2024-03-17T11:28:03;100903.00;;;10.80
24639;BMP180;1641;51.306;12.384;2024-03-17T11:46:39;100866.00;;;10.90
24639;BMP180;1641;51.306;12.384;2024-03-17T11:49:04;100883.00;;;11.60
24639;BMP180;1641;51.306;12.384;2024-03-17T11:51:34;100872.00;;;11.60
24639;BMP180;1641;51.306;12.384;2024-03-17T11:53:59;100873.00;;;11.50
24639;BMP180;1641;51.306;12.384;2024-03-17T11:56:24;100873.00;;;11.20
24639;BMP180;1641;51.306;12.384;2024-03-17T11:59:04;100833.00;;;11.80
24639;BMP180;1641;51.306;12.384;2024-03-17T12:01:30;100877.00;;;11.90
24639;BMP180;1641;51.306;12.384;2024-03-17T12:03:55;100872.00;;;11.70
24639;BMP180;1641;51.306;12.384;2024-03-17T12:06:22;100860.00;;;12.10
24639;BMP180;1641;51.306;12.384;2024-03-17T12:08:48;100880.00;;;12.50
24639;BMP180;1641;51.306;12.384;2024-03-17T12:11:19;100867.00;;;12.20
24639;BMP180;1641;51.306;12.384;2024-03-17T12:13:45;100876.00;;;12.40
24639;BMP180;1641;51.306;12.384;2024-03-17T12:16:13;100868.00;;;12.40
24639;BMP180;1641;51.306;12.384;2024-03-17T12:18:39;100868.00;;;12.40
24639;BMP180;1641;51.306;12.384;2024-03-17T12:21:13;100857.00;;;12.40
24639;BMP180;1641;51.306;12.384;2024-03-17T12:23:39;100858.00;;;13.00
24639;BMP180;1641;51.306;12.384;2024-03-17T12:26:15;100857.00;;;12.90
24639;BMP180;1641;51.306;12.384;2024-03-17T12:28:41;100787.00;;;13.20
24639;BMP180;1641;51.306;12.384;2024-03-17T12:31:06;100832.00;;;12.60
24639;BMP180;1641;51.306;12.384;2024-03-17T12:33:32;100836.00;;;12.10
24639;BMP180;1641;51.306;12.384;2024-03-17T12:36:04;100803.00;;;11.90
24639;BMP180;1641;51.306;12.384;2024-03-17T12:38:37;100797.00;;;12.10
24639;BMP180;1641;51.306;12.384;2024-03-17T12:41:02;100806.00;;;12.20
24639;BMP180;1641;51.306;12.384;2024-03-17T12:43:35;100839.00;;;12.90
24639;BMP180;1641;51.306;12.384;2024-03-17T12:46:13;100837.00;;;12.90
24639;BMP180;1641;51.306;12.384;2024-03-17T12:48:38;100830.00;;;12.70
24639;BMP180;1641;51.306;12.384;2024-03-17T12:51:14;100801.00;;;12.50
24639;BMP180;1641;51.306;12.384;2024-03-17T12:53:45;100834.00;;;12.10
24639;BMP180;1641;51.306;12.384;2024-03-17T12:56:11;100835.00;;;12.50
24639;BMP180;1641;51.306;12.384;2024-03-17T12:59:05;100844.00;;;12.00
24639;BMP180;1641;51.306;12.384;2024-03-17T13:01:49;100835.00;;;12.10
24639;BMP180;1641;51.306;12.384;2024-03-17T13:04:16;100804.00;;;12.40
24639;BMP180;1641;51.306;12.384;2024-03-17T13:06:43;100782.00;;;12.40
24639;BMP180;1641;51.306;12.384;2024-03-17T13:09:08;100813.00;;;12.70
24639;BMP180;1641;51.306;12.384;2024-03-17T13:11:35;100818.00;;;13.20
24639;BMP180;1641;51.306;12.384;2024-03-17T13:14:09;100805.00;;;12.80
24639;BMP180;1641;51.306;12.384;2024-03-17T13:16:46;100809.00;;;13.00
24639;BMP180;1641;51.306;12.384;2024-03-17T13:19:12;100794.00;;;13.10
24639;BMP180;1641;51.306;12.384;2024-03-17T13:21:37;100797.00;;;13.70
24639;BMP180;1641;51.306;12.384;2024-03-17T13:24:03;100794.00;;;13.40
24639;BMP180;1641;51.306;12.384;2024-03-17T13:26:28;100749.00;;;13.40
24639;BMP180;1641;51.306;12.384;2024-03-17T13:29:00;100781.00;;;13.70
24639;BMP180;1641;51.306;12.384;2024-03-17T13:31:25;100785.00;;;13.90
24639;BMP180;1641;51.306;12.384;2024-03-17T13:33:52;100779.00;;;14.00
24639;BMP180;1641;51.306;12.384;2024-03-17T13:36:35;100784.00;;;14.10
24639;BMP180;1641;51.306;12.384;2024-03-17T13:39:07;100735.00;;;13.70
24639;BMP180;1641;51.306;12.384;2024-03-17T13:41:35;100781.00;;;13.80
24639;BMP180;1641;51.306;12.384;2024-03-17T13:44:03;100772.00;;;13.70
24639;BMP180;1641;51.306;12.384;2024-03-17T13:46:29;100780.00;;;12.60
24639;BMP180;1641;51.306;12.384;2024-03-17T13:49:00;100760.00;;;12.50
24639;BMP180;1641;51.306;12.384;2024-03-17T13:51:31;100792.00;;;12.70
24639;BMP180;1641;51.306;12.384;2024-03-17T13:53:56;100796.00;;;12.50
24639;BMP180;1641;51.306;12.384;2024-03-17T13:56:22;100758.00;;;13.10
24639;BMP180;1641;51.306;12.384;2024-03-17T13:58:49;100803.00;;;13.30
24639;BMP180;1641;51.306;12.384;2024-03-17T14:01:18;100752.00;;;13.60
24639;BMP180;1641;51.306;12.384;2024-03-17T14:03:44;100809.00;;;13.60
24639;BMP180;1641;51.306;12.384;2024-03-17T14:06:14;100769.00;;;13.70
24639;BMP180;1641;51.306;12.384;2024-03-17T14:08:39;100803.00;;;13.10
24639;BMP180;1641;51.306;12.384;2024-03-17T14:11:17;100786.00;;;13.10
24639;BMP180;1641;51.306;12.384;2024-03-17T14:13:45;100745.00;;;13.00
24639;BMP180;1641;51.306;12.384;2024-03-17T14:16:10;100770.00;;;13.30
24639;BMP180;1641;51.306;12.384;2024-03-17T14:18:39;100798.00;;;13.50
24639;BMP180;1641;51.306;12.384;2024-03-17T14:21:10;100792.00;;;13.20
24639;BMP180;1641;51.306;12.384;2024-03-17T14:24:04;100788.00;;;13.00
24639;BMP180;1641;51.306;12.384;2024-03-17T14:26:35;100741.00;;;12.50
24639;BMP180;1641;51.306;12.384;2024-03-17T14:29:01;100784.00;;;12.60